sensor_id;sensor_type;location;lat;lon;timestamp;P1;durP1;ratioP1;P2;durP2;ratioP2
48588;SDS011;34369;51.174;6.738;2023-04-19T00:00:26;39.10;;;36.40;;
48588;SDS011;34369;51.174;6.738;2023-04-19T00:02:58;39.08;;;36.28;;
48588;SDS011;34369;51.174;6.738;2023-04-19T00:05:31;39.00;;;36.30;;
48588;SDS011;34369;51.174;6.738;2023-04-19T00:08:04;38.17;;;35.50;;
48588;SDS011;34369;51.174;6.738;2023-04-19T00:10:36;38.90;;;36.20;;
48588;SDS011;34369;51.174;6.738;2023-04-19T00:13:08;38.70;;;36.00;;
48588;SDS011;34369;51.174;6.738;2023-04-19T00:15:41;38.25;;;35.65;;
48588;SDS011;34369;51.174;6.738;2023-04-19T00:18:13;39.27;;;36.53;;
48588;SDS011;34369;51.174;6.738;2023-04-19T00:20:45;39.77;;;37.00;;
48588;SDS011;34369;51.174;6.738;2023-04-19T00:23:19;40.17;;;37.17;;
48588;SDS011;34369;51.174;6.738;2023-04-19T00:25:51;37.40;;;34.65;;
48588;SDS011;34369;51.174;6.738;2023-04-19T00:28:23;40.13;;;37.13;;
48588;SDS011;34369;51.174;6.738;2023-04-19T00:30:56;37.60;;;34.90;;
48588;SDS011;34369;51.174;6.738;2023-04-19T00:33:28;36.88;;;34.17;;
48588;SDS011;34369;51.174;6.738;2023-04-19T00:36:00;37.65;;;35.00;;
48588;SDS011;34369;51.174;6.738;2023-04-19T00:38:33;39.33;;;36.42;;
48588;SDS011;34369;51.174;6.738;2023-04-19T00:41:05;38.88;;;36.05;;
48588;SDS011;34369;51.174;6.738;2023-04-19T00:43:37;39.60;;;36.80;;
48588;SDS011;34369;51.174;6.738;2023-04-19T00:46:09;41.70;;;38.83;;
48588;SDS011;34369;51.174;6.738;2023-04-19T00:48:41;38.35;;;35.65;;
48588;SDS011;34369;51.174;6.738;2023-04-19T00:51:13;38.30;;;35.58;;
48588;SDS011;34369;51.174;6.738;2023-04-19T00:53:47;39.42;;;36.53;;
48588;SDS011;34369;51.174;6.738;2023-04-19T00:56:19;37.83;;;35.22;;
48588;SDS011;34369;51.174;6.738;2023-04-19T00:58:53;37.80;;;35.00;;
48588;SDS011;34369;51.174;6.738;2023-04-19T01:01:25;39.08;;;36.28;;
48588;SDS011;34369;51.174;6.738;2023-04-19T01:03:57;37.13;;;34.53;;
48588;SDS011;34369;51.174;6.738;2023-04-19T01:06:30;40.38;;;37.38;;
48588;SDS011;34369;51.174;6.738;2023-04-19T01:09:05;37.30;;;34.60;;
48588;SDS011;34369;51.174;6.738;2023-04-19T01:11:38;38.30;;;35.60;;
48588;SDS011;34369;51.174;6.738;2023-04-19T01:14:10;39.37;;;36.60;;
48588;SDS011;34369;51.174;6.738;2023-04-19T01:16:42;40.10;;;37.30;;
48588;SDS011;34369;51.174;6.738;2023-04-19T01:19:15;39.83;;;37.03;;
48588;SDS011;34369;51.174;6.738;2023-04-19T01:21:47;38.15;;;35.38;;
48588;SDS011;34369;51.174;6.738;2023-04-19T01:24:20;39.35;;;36.55;;
48588;SDS011;34369;51.174;6.738;2023-04-19T01:26:52;39.25;;;36.45;;
48588;SDS011;34369;51.174;6.738;2023-04-19T01:29:24;38.47;;;35.78;;
48588;SDS011;34369;51.174;6.738;2023-04-19T01:31:56;39.75;;;36.95;;
48588;SDS011;34369;51.174;6.738;2023-04-19T01:34:28;38.30;;;35.58;;
48588;SDS011;34369;51.174;6.738;2023-04-19T01:37:00;38.97;;;36.17;;
48588;SDS011;34369;51.174;6.738;2023-04-19T01:39:33;38.72;;;35.92;;
48588;SDS011;34369;51.174;6.738;2023-04-19T01:42:05;39.53;;;36.67;;
48588;SDS011;34369;51.174;6.738;2023-04-19T01:44:37;40.55;;;37.65;;
48588;SDS011;34369;51.174;6.738;2023-04-19T01:47:09;38.80;;;35.97;;
48588;SDS011;34369;51.174;6.738;2023-04-19T01:49:41;38.65;;;35.85;;
48588;SDS011;34369;51.174;6.738;2023-04-19T01:52:13;39.13;;;36.22;;
48588;SDS011;34369;51.174;6.738;2023-04-19T01:54:46;39.85;;;36.95;;
48588;SDS011;34369;51.174;6.738;2023-04-19T01:57:18;39.53;;;36.63;;
48588;SDS011;34369;51.174;6.738;2023-04-19T01:59:50;37.53;;;34.85;;
48588;SDS011;34369;51.174;6.738;2023-04-19T02:02:23;40.20;;;37.10;;
48588;SDS011;34369;51.174;6.738;2023-04-19T02:04:56;38.10;;;35.40;;
48588;SDS011;34369;51.174;6.738;2023-04-19T02:07:27;38.53;;;35.65;;
48588;SDS011;34369;51.174;6.738;2023-04-19T02:10:01;36.95;;;34.25;;
48588;SDS011;34369;51.174;6.738;2023-04-19T02:12:33;38.80;;;36.00;;
48588;SDS011;34369;51.174;6.738;2023-04-19T02:15:06;38.83;;;36.03;;
48588;SDS011;34369;51.174;6.738;2023-04-19T02:17:39;37.83;;;35.05;;
48588;SDS011;34369;51.174;6.738;2023-04-19T02:20:11;38.22;;;35.42;;
48588;SDS011;34369;51.174;6.738;2023-04-19T02:22:43;38.33;;;35.53;;
48588;SDS011;34369;51.174;6.738;2023-04-19T02:25:18;37.90;;;35.20;;
48588;SDS011;34369;51.174;6.738;2023-04-19T02:27:50;39.85;;;36.97;;
48588;SDS011;34369;51.174;6.738;2023-04-19T02:30:22;39.25;;;36.47;;
48588;SDS011;34369;51.174;6.738;2023-04-19T02:32:54;38.53;;;35.63;;
48588;SDS011;34369;51.174;6.738;2023-04-19T02:35:27;39.15;;;36.25;;
48588;SDS011;34369;51.174;6.738;2023-04-19T02:38:01;38.83;;;36.05;;
48588;SDS011;34369;51.174;6.738;2023-04-19T02:40:35;37.22;;;34.63;;
48588;SDS011;34369;51.174;6.738;2023-04-19T02:43:07;39.13;;;36.42;;
48588;SDS011;34369;51.174;6.738;2023-04-19T02:45:39;39.55;;;36.67;;
48588;SDS011;34369;51.174;6.738;2023-04-19T02:48:11;39.22;;;36.42;;
48588;SDS011;34369;51.174;6.738;2023-04-19T02:50:43;39.88;;;36.97;;
48588;SDS011;34369;51.174;6.738;2023-04-19T02:53:14;38.13;;;35.42;;
48588;SDS011;34369;51.174;6.738;2023-04-19T02:55:48;38.40;;;35.60;;
48588;SDS011;34369;51.174;6.738;2023-04-19T02:58:20;39.97;;;37.17;;
48588;SDS011;34369;51.174;6.738;2023-04-19T03:00:51;40.67;;;37.78;;
48588;SDS011;34369;51.174;6.738;2023-04-19T03:03:23;38.20;;;35.50;;
48588;SDS011;34369;51.174;6.738;2023-04-19T03:05:56;40.10;;;37.10;;
48588;SDS011;34369;51.174;6.738;2023-04-19T03:08:28;38.70;;;35.83;;
48588;SDS011;34369;51.174;6.738;2023-04-19T03:11:01;37.65;;;34.85;;
48588;SDS011;34369;51.174;6.738;2023-04-19T03:13:33;39.28;;;36.58;;
48588;SDS011;34369;51.174;6.738;2023-04-19T03:16:05;39.45;;;36.67;;
48588;SDS011;34369;51.174;6.738;2023-04-19T03:18:38;39.17;;;36.37;;
48588;SDS011;34369;51.174;6.738;2023-04-19T03:21:10;39.70;;;36.83;;
48588;SDS011;34369;51.174;6.738;2023-04-19T03:23:42;39.58;;;36.60;;
48588;SDS011;34369;51.174;6.738;2023-04-19T03:26:15;40.65;;;37.78;;
48588;SDS011;34369;51.174;6.738;2023-04-19T03:28:47;41.05;;;37.97;;
48588;SDS011;34369;51.174;6.738;2023-04-19T03:31:19;41.83;;;38.92;;
48588;SDS011;34369;51.174;6.738;2023-04-19T03:33:51;37.95;;;35.17;;
48588;SDS011;34369;51.174;6.738;2023-04-19T03:36:23;38.80;;;36.00;;
48588;SDS011;34369;51.174;6.738;2023-04-19T03:38:55;40.22;;;37.28;;
48588;SDS011;34369;51.174;6.738;2023-04-19T03:41:29;39.97;;;37.07;;
48588;SDS011;34369;51.174;6.738;2023-04-19T03:44:01;38.10;;;35.30;;
48588;SDS011;34369;51.174;6.738;2023-04-19T03:46:33;39.00;;;36.30;;
48588;SDS011;34369;51.174;6.738;2023-04-19T03:49:05;40.55;;;37.75;;
48588;SDS011;34369;51.174;6.738;2023-04-19T03:51:36;39.50;;;36.80;;
48588;SDS011;34369;51.174;6.738;2023-04-19T03:54:08;38.93;;;36.23;;
48588;SDS011;34369;51.174;6.738;2023-04-19T03:56:43;38.78;;;36.08;;
48588;SDS011;34369;51.174;6.738;2023-04-19T03:59:15;38.07;;;35.47;;
48588;SDS011;34369;51.174;6.738;2023-04-19T04:01:47;37.53;;;34.67;;
48588;SDS011;34369;51.174;6.738;2023-04-19T04:04:19;37.72;;;35.05;;
48588;SDS011;34369;51.174;6.738;2023-04-19T04:06:51;36.35;;;33.67;;
48588;SDS011;34369;51.174;6.738;2023-04-19T04:09:22;38.28;;;35.47;;
48588;SDS011;34369;51.174;6.738;2023-04-19T04:11:56;39.25;;;36.38;;
48588;SDS011;34369;51.174;6.738;2023-04-19T04:14:28;37.10;;;34.40;;
48588;SDS011;34369;51.174;6.738;2023-04-19T04:17:00;38.40;;;35.67;;
48588;SDS011;34369;51.174;6.738;2023-04-19T04:19:32;36.97;;;34.27;;
48588;SDS011;34369;51.174;6.738;2023-04-19T04:22:04;39.27;;;36.47;;
48588;SDS011;34369;51.174;6.738;2023-04-19T04:24:37;38.13;;;35.50;;
48588;SDS011;34369;51.174;6.738;2023-04-19T04:27:11;37.88;;;35.15;;
48588;SDS011;34369;51.174;6.738;2023-04-19T04:29:43;37.28;;;34.55;;
48588;SDS011;34369;51.174;6.738;2023-04-19T04:32:15;37.80;;;35.10;;
48588;SDS011;34369;51.174;6.738;2023-04-19T04:34:52;36.30;;;33.75;;
48588;SDS011;34369;51.174;6.738;2023-04-19T04:37:24;36.97;;;34.37;;
48588;SDS011;34369;51.174;6.738;2023-04-19T04:39:55;36.75;;;34.05;;
48588;SDS011;34369;51.174;6.738;2023-04-19T04:42:29;37.40;;;34.80;;
48588;SDS011;34369;51.174;6.738;2023-04-19T04:45:02;36.75;;;34.25;;
48588;SDS011;34369;51.174;6.738;2023-04-19T04:47:35;35.53;;;33.03;;
48588;SDS011;34369;51.174;6.738;2023-04-19T04:50:07;34.67;;;32.10;;
48588;SDS011;34369;51.174;6.738;2023-04-19T04:52:40;36.87;;;34.27;;
48588;SDS011;34369;51.174;6.738;2023-04-19T04:55:12;34.97;;;32.58;;
48588;SDS011;34369;51.174;6.738;2023-04-19T04:57:45;35.80;;;33.30;;
48588;SDS011;34369;51.174;6.738;2023-04-19T05:00:17;34.72;;;32.25;;
48588;SDS011;34369;51.174;6.738;2023-04-19T05:02:50;34.50;;;32.00;;
48588;SDS011;34369;51.174;6.738;2023-04-19T05:05:22;35.33;;;32.93;;
48588;SDS011;34369;51.174;6.738;2023-04-19T05:07:54;34.75;;;32.45;;
48588;SDS011;34369;51.174;6.738;2023-04-19T05:10:26;33.85;;;31.63;;
48588;SDS011;34369;51.174;6.738;2023-04-19T05:13:00;35.38;;;32.58;;
48588;SDS011;34369;51.174;6.738;2023-04-19T05:15:32;34.72;;;32.42;;
48588;SDS011;34369;51.174;6.738;2023-04-19T05:18:04;35.50;;;33.13;;
48588;SDS011;34369;51.174;6.738;2023-04-19T05:20:37;34.27;;;31.97;;
48588;SDS011;34369;51.174;6.738;2023-04-19T05:23:09;34.43;;;32.13;;
48588;SDS011;34369;51.174;6.738;2023-04-19T05:25:41;33.03;;;30.73;;
48588;SDS011;34369;51.174;6.738;2023-04-19T05:28:14;33.28;;;31.00;;
48588;SDS011;34369;51.174;6.738;2023-04-19T05:30:46;34.53;;;32.25;;
48588;SDS011;34369;51.174;6.738;2023-04-19T05:33:18;33.22;;;31.02;;
48588;SDS011;34369;51.174;6.738;2023-04-19T05:35:50;35.00;;;32.60;;
48588;SDS011;34369;51.174;6.738;2023-04-19T05:38:22;34.43;;;32.13;;
48588;SDS011;34369;51.174;6.738;2023-04-19T05:40:54;35.13;;;32.83;;
48588;SDS011;34369;51.174;6.738;2023-04-19T05:43:27;33.43;;;31.23;;
48588;SDS011;34369;51.174;6.738;2023-04-19T05:46:00;33.65;;;31.38;;
48588;SDS011;34369;51.174;6.738;2023-04-19T05:48:32;35.37;;;32.97;;
48588;SDS011;34369;51.174;6.738;2023-04-19T05:51:04;33.53;;;31.33;;
48588;SDS011;34369;51.174;6.738;2023-04-19T05:53:36;35.08;;;32.45;;
48588;SDS011;34369;51.174;6.738;2023-04-19T05:56:08;34.20;;;31.90;;
48588;SDS011;34369;51.174;6.738;2023-04-19T05:58:41;34.50;;;32.20;;
48588;SDS011;34369;51.174;6.738;2023-04-19T06:01:13;34.00;;;31.80;;
48588;SDS011;34369;51.174;6.738;2023-04-19T06:03:45;34.77;;;32.40;;
48588;SDS011;34369;51.174;6.738;2023-04-19T06:06:21;32.47;;;30.20;;
48588;SDS011;34369;51.174;6.738;2023-04-19T06:08:54;34.30;;;31.90;;
48588;SDS011;34369;51.174;6.738;2023-04-19T06:11:25;34.78;;;32.47;;
48588;SDS011;34369;51.174;6.738;2023-04-19T06:13:59;34.70;;;32.40;;
48588;SDS011;34369;51.174;6.738;2023-04-19T06:16:31;34.30;;;31.92;;
48588;SDS011;34369;51.174;6.738;2023-04-19T06:19:03;32.97;;;30.67;;
48588;SDS011;34369;51.174;6.738;2023-04-19T06:21:35;33.83;;;31.58;;
48588;SDS011;34369;51.174;6.738;2023-04-19T06:24:07;33.28;;;31.08;;
48588;SDS011;34369;51.174;6.738;2023-04-19T06:26:39;31.75;;;29.55;;
48588;SDS011;34369;51.174;6.738;2023-04-19T06:29:12;32.20;;;30.10;;
48588;SDS011;34369;51.174;6.738;2023-04-19T06:31:44;31.77;;;29.58;;
48588;SDS011;34369;51.174;6.738;2023-04-19T06:34:16;32.28;;;30.08;;
48588;SDS011;34369;51.174;6.738;2023-04-19T06:36:48;32.47;;;30.35;;
48588;SDS011;34369;51.174;6.738;2023-04-19T06:39:20;32.47;;;30.27;;
48588;SDS011;34369;51.174;6.738;2023-04-19T06:41:52;32.45;;;30.27;;
48588;SDS011;34369;51.174;6.738;2023-04-19T06:44:25;33.10;;;30.90;;
48588;SDS011;34369;51.174;6.738;2023-04-19T06:46:57;34.58;;;32.33;;
48588;SDS011;34369;51.174;6.738;2023-04-19T06:49:29;32.95;;;30.67;;
48588;SDS011;34369;51.174;6.738;2023-04-19T06:52:01;33.00;;;30.80;;
48588;SDS011;34369;51.174;6.738;2023-04-19T06:54:33;32.20;;;29.98;;
48588;SDS011;34369;51.174;6.738;2023-04-19T06:57:05;30.60;;;28.60;;
48588;SDS011;34369;51.174;6.738;2023-04-19T06:59:39;33.47;;;31.27;;
48588;SDS011;34369;51.174;6.738;2023-04-19T07:02:11;32.33;;;29.92;;
48588;SDS011;34369;51.174;6.738;2023-04-19T07:04:43;32.15;;;30.05;;
48588;SDS011;34369;51.174;6.738;2023-04-19T07:07:15;32.03;;;29.85;;
48588;SDS011;34369;51.174;6.738;2023-04-19T07:09:47;32.55;;;30.25;;
48588;SDS011;34369;51.174;6.738;2023-04-19T07:12:19;32.75;;;30.55;;
48588;SDS011;34369;51.174;6.738;2023-04-19T07:14:53;31.55;;;29.15;;
48588;SDS011;34369;51.174;6.738;2023-04-19T07:17:26;30.02;;;27.92;;
48588;SDS011;34369;51.174;6.738;2023-04-19T07:19:58;30.05;;;27.95;;
48588;SDS011;34369;51.174;6.738;2023-04-19T07:22:30;30.55;;;28.40;;
48588;SDS011;34369;51.174;6.738;2023-04-19T07:25:02;29.80;;;27.67;;
48588;SDS011;34369;51.174;6.738;2023-04-19T07:27:35;30.30;;;28.10;;
48588;SDS011;34369;51.174;6.738;2023-04-19T07:30:09;29.63;;;27.52;;
48588;SDS011;34369;51.174;6.738;2023-04-19T07:32:41;30.23;;;28.13;;
48588;SDS011;34369;51.174;6.738;2023-04-19T07:35:13;29.33;;;27.33;;
48588;SDS011;34369;51.174;6.738;2023-04-19T07:37:45;29.92;;;27.83;;
48588;SDS011;34369;51.174;6.738;2023-04-19T07:40:17;29.52;;;27.42;;
48588;SDS011;34369;51.174;6.738;2023-04-19T07:42:49;28.00;;;25.83;;
48588;SDS011;34369;51.174;6.738;2023-04-19T07:45:22;29.33;;;27.30;;
48588;SDS011;34369;51.174;6.738;2023-04-19T07:47:54;29.40;;;27.35;;
48588;SDS011;34369;51.174;6.738;2023-04-19T07:50:26;29.27;;;27.27;;
48588;SDS011;34369;51.174;6.738;2023-04-19T07:52:58;28.75;;;26.75;;
48588;SDS011;34369;51.174;6.738;2023-04-19T07:55:30;28.45;;;26.45;;
48588;SDS011;34369;51.174;6.738;2023-04-19T07:58:02;26.95;;;25.05;;
48588;SDS011;34369;51.174;6.738;2023-04-19T08:00:36;27.08;;;24.98;;
48588;SDS011;34369;51.174;6.738;2023-04-19T08:03:08;26.13;;;24.20;;
48588;SDS011;34369;51.174;6.738;2023-04-19T08:05:40;26.75;;;24.65;;
48588;SDS011;34369;51.174;6.738;2023-04-19T08:08:12;25.88;;;23.75;;
48588;SDS011;34369;51.174;6.738;2023-04-19T08:10:44;25.30;;;23.33;;
48588;SDS011;34369;51.174;6.738;2023-04-19T08:13:15;24.42;;;22.60;;
48588;SDS011;34369;51.174;6.738;2023-04-19T08:15:49;24.27;;;22.48;;
48588;SDS011;34369;51.174;6.738;2023-04-19T08:18:21;23.80;;;21.98;;
48588;SDS011;34369;51.174;6.738;2023-04-19T08:20:53;23.45;;;21.60;;
48588;SDS011;34369;51.174;6.738;2023-04-19T08:23:25;23.00;;;21.27;;
48588;SDS011;34369;51.174;6.738;2023-04-19T08:25:57;23.15;;;20.92;;
48588;SDS011;34369;51.174;6.738;2023-04-19T08:28:29;22.00;;;20.30;;
48588;SDS011;34369;51.174;6.738;2023-04-19T08:31:05;22.65;;;20.85;;
48588;SDS011;34369;51.174;6.738;2023-04-19T08:33:37;22.13;;;20.33;;
48588;SDS011;34369;51.174;6.738;2023-04-19T08:36:09;21.98;;;20.17;;
48588;SDS011;34369;51.174;6.738;2023-04-19T08:38:42;21.10;;;19.45;;
48588;SDS011;34369;51.174;6.738;2023-04-19T08:41:14;21.10;;;19.30;;
48588;SDS011;34369;51.174;6.738;2023-04-19T08:43:49;20.75;;;19.05;;
48588;SDS011;34369;51.174;6.738;2023-04-19T08:46:24;20.73;;;19.13;;
48588;SDS011;34369;51.174;6.738;2023-04-19T08:48:56;20.23;;;18.63;;
48588;SDS011;34369;51.174;6.738;2023-04-19T08:51:30;20.88;;;19.13;;
48588;SDS011;34369;51.174;6.738;2023-04-19T08:54:03;20.77;;;19.05;;
48588;SDS011;34369;51.174;6.738;2023-04-19T08:56:36;20.73;;;19.05;;
48588;SDS011;34369;51.174;6.738;2023-04-19T08:59:08;20.45;;;18.65;;
48588;SDS011;34369;51.174;6.738;2023-04-19T09:01:41;20.10;;;18.40;;
48588;SDS011;34369;51.174;6.738;2023-04-19T09:04:14;20.40;;;18.63;;
48588;SDS011;34369;51.174;6.738;2023-04-19T09:06:45;20.05;;;18.35;;
48588;SDS011;34369;51.174;6.738;2023-04-19T09:09:18;19.52;;;17.83;;
48588;SDS011;34369;51.174;6.738;2023-04-19T09:11:52;19.85;;;18.15;;
48588;SDS011;34369;51.174;6.738;2023-04-19T09:14:24;19.48;;;17.77;;
48588;SDS011;34369;51.174;6.738;2023-04-19T09:17:12;19.63;;;17.92;;
48588;SDS011;34369;51.174;6.738;2023-04-19T09:22:17;20.00;;;18.40;;
48588;SDS011;34369;51.174;6.738;2023-04-19T09:24:49;20.55;;;18.83;;
48588;SDS011;34369;51.174;6.738;2023-04-19T09:27:24;20.90;;;19.20;;
48588;SDS011;34369;51.174;6.738;2023-04-19T09:29:59;20.98;;;19.25;;
48588;SDS011;34369;51.174;6.738;2023-04-19T09:32:45;21.30;;;19.70;;
48588;SDS011;34369;51.174;6.738;2023-04-19T09:35:18;22.95;;;21.17;;
48588;SDS011;34369;51.174;6.738;2023-04-19T09:37:57;22.67;;;20.88;;
48588;SDS011;34369;51.174;6.738;2023-04-19T09:40:30;23.15;;;21.45;;
48588;SDS011;34369;51.174;6.738;2023-04-19T09:43:02;23.75;;;21.88;;
48588;SDS011;34369;51.174;6.738;2023-04-19T09:45:38;24.33;;;22.52;;
48588;SDS011;34369;51.174;6.738;2023-04-19T09:48:13;24.25;;;22.55;;
48588;SDS011;34369;51.174;6.738;2023-04-19T09:50:52;24.15;;;22.42;;
48588;SDS011;34369;51.174;6.738;2023-04-19T09:53:27;24.77;;;22.67;;
48588;SDS011;34369;51.174;6.738;2023-04-19T09:56:03;24.50;;;22.70;;
48588;SDS011;34369;51.174;6.738;2023-04-19T09:58:36;25.27;;;23.42;;
48588;SDS011;34369;51.174;6.738;2023-04-19T10:01:08;25.33;;;23.52;;
48588;SDS011;34369;51.174;6.738;2023-04-19T10:03:43;25.63;;;23.83;;
48588;SDS011;34369;51.174;6.738;2023-04-19T10:06:17;25.50;;;23.70;;
48588;SDS011;34369;51.174;6.738;2023-04-19T10:08:49;26.38;;;24.58;;
48588;SDS011;34369;51.174;6.738;2023-04-19T10:11:25;26.83;;;24.77;;
48588;SDS011;34369;51.174;6.738;2023-04-19T10:14:03;26.10;;;24.20;;
48588;SDS011;34369;51.174;6.738;2023-04-19T10:16:37;27.27;;;25.08;;
48588;SDS011;34369;51.174;6.738;2023-04-19T10:19:12;26.40;;;24.60;;
48588;SDS011;34369;51.174;6.738;2023-04-19T10:24:18;26.00;;;24.15;;
48588;SDS011;34369;51.174;6.738;2023-04-19T10:27:06;26.60;;;24.70;;
48588;SDS011;34369;51.174;6.738;2023-04-19T10:29:53;25.60;;;23.80;;
48588;SDS011;34369;51.174;6.738;2023-04-19T10:32:27;26.33;;;24.38;;
48588;SDS011;34369;51.174;6.738;2023-04-19T10:35:04;26.70;;;24.52;;
48588;SDS011;34369;51.174;6.738;2023-04-19T10:38:00;25.90;;;24.00;;
48588;SDS011;34369;51.174;6.738;2023-04-19T10:40:54;25.52;;;23.65;;
48588;SDS011;34369;51.174;6.738;2023-04-19T10:43:30;26.58;;;24.60;;
48588;SDS011;34369;51.174;6.738;2023-04-19T10:46:07;26.05;;;24.17;;
48588;SDS011;34369;51.174;6.738;2023-04-19T10:48:51;25.60;;;23.70;;
48588;SDS011;34369;51.174;6.738;2023-04-19T10:51:28;26.30;;;24.50;;
48588;SDS011;34369;51.174;6.738;2023-04-19T10:54:04;25.08;;;23.23;;
48588;SDS011;34369;51.174;6.738;2023-04-19T10:56:57;25.23;;;23.52;;
48588;SDS011;34369;51.174;6.738;2023-04-19T10:59:31;25.40;;;23.60;;
48588;SDS011;34369;51.174;6.738;2023-04-19T11:02:05;25.73;;;23.92;;
48588;SDS011;34369;51.174;6.738;2023-04-19T11:05:02;25.38;;;23.58;;
48588;SDS011;34369;51.174;6.738;2023-04-19T11:07:36;25.95;;;24.15;;
48588;SDS011;34369;51.174;6.738;2023-04-19T11:10:12;25.38;;;23.65;;
48588;SDS011;34369;51.174;6.738;2023-04-19T11:13:00;25.90;;;24.10;;
48588;SDS011;34369;51.174;6.738;2023-04-19T11:15:32;25.60;;;23.70;;
48588;SDS011;34369;51.174;6.738;2023-04-19T11:18:05;25.77;;;24.05;;
48588;SDS011;34369;51.174;6.738;2023-04-19T11:20:37;26.45;;;24.55;;
48588;SDS011;34369;51.174;6.738;2023-04-19T11:23:17;25.40;;;23.60;;
48588;SDS011;34369;51.174;6.738;2023-04-19T11:25:49;25.70;;;23.90;;
48588;SDS011;34369;51.174;6.738;2023-04-19T11:28:22;26.20;;;24.40;;
48588;SDS011;34369;51.174;6.738;2023-04-19T11:30:54;25.92;;;23.98;;
48588;SDS011;34369;51.174;6.738;2023-04-19T11:33:33;27.17;;;25.23;;
48588;SDS011;34369;51.174;6.738;2023-04-19T11:36:10;27.10;;;24.95;;
48588;SDS011;34369;51.174;6.738;2023-04-19T11:38:45;26.17;;;24.35;;
48588;SDS011;34369;51.174;6.738;2023-04-19T11:41:18;26.75;;;24.80;;
48588;SDS011;34369;51.174;6.738;2023-04-19T11:43:50;24.90;;;23.10;;
48588;SDS011;34369;51.174;6.738;2023-04-19T11:46:23;25.38;;;23.58;;
48588;SDS011;34369;51.174;6.738;2023-04-19T11:48:56;25.55;;;23.65;;
48588;SDS011;34369;51.174;6.738;2023-04-19T11:51:28;25.60;;;23.80;;
48588;SDS011;34369;51.174;6.738;2023-04-19T11:54:00;24.50;;;22.50;;
48588;SDS011;34369;51.174;6.738;2023-04-19T11:56:56;23.58;;;21.88;;
48588;SDS011;34369;51.174;6.738;2023-04-19T11:59:34;24.05;;;22.25;;
48588;SDS011;34369;51.174;6.738;2023-04-19T12:02:07;23.65;;;21.95;;
48588;SDS011;34369;51.174;6.738;2023-04-19T12:04:42;24.00;;;22.10;;
48588;SDS011;34369;51.174;6.738;2023-04-19T12:07:14;23.27;;;21.58;;
48588;SDS011;34369;51.174;6.738;2023-04-19T12:09:47;23.48;;;21.67;;
48588;SDS011;34369;51.174;6.738;2023-04-19T12:15:10;22.70;;;21.00;;
48588;SDS011;34369;51.174;6.738;2023-04-19T12:17:54;22.50;;;20.80;;
48588;SDS011;34369;51.174;6.738;2023-04-19T12:20:33;22.75;;;20.95;;
48588;SDS011;34369;51.174;6.738;2023-04-19T12:23:07;22.05;;;20.45;;
48588;SDS011;34369;51.174;6.738;2023-04-19T12:25:40;22.20;;;20.60;;
48588;SDS011;34369;51.174;6.738;2023-04-19T12:28:14;22.08;;;20.48;;
48588;SDS011;34369;51.174;6.738;2023-04-19T12:30:54;22.77;;;21.08;;
48588;SDS011;34369;51.174;6.738;2023-04-19T12:33:26;22.23;;;20.42;;
48588;SDS011;34369;51.174;6.738;2023-04-19T12:36:00;21.85;;;20.15;;
48588;SDS011;34369;51.174;6.738;2023-04-19T12:38:32;21.88;;;20.17;;
48588;SDS011;34369;51.174;6.738;2023-04-19T12:41:04;21.60;;;19.77;;
48588;SDS011;34369;51.174;6.738;2023-04-19T12:43:36;22.30;;;20.60;;
48588;SDS011;34369;51.174;6.738;2023-04-19T12:46:08;21.63;;;19.92;;
48588;SDS011;34369;51.174;6.738;2023-04-19T12:48:40;21.35;;;19.75;;
48588;SDS011;34369;51.174;6.738;2023-04-19T12:51:13;21.85;;;20.05;;
48588;SDS011;34369;51.174;6.738;2023-04-19T12:53:46;21.13;;;19.42;;
48588;SDS011;34369;51.174;6.738;2023-04-19T12:56:19;21.10;;;19.30;;
48588;SDS011;34369;51.174;6.738;2023-04-19T12:58:51;21.63;;;19.95;;
48588;SDS011;34369;51.174;6.738;2023-04-19T13:01:23;21.42;;;19.63;;
48588;SDS011;34369;51.174;6.738;2023-04-19T13:03:55;21.80;;;20.10;;
48588;SDS011;34369;51.174;6.738;2023-04-19T13:06:28;21.80;;;20.13;;
48588;SDS011;34369;51.174;6.738;2023-04-19T13:09:00;21.85;;;19.83;;
48588;SDS011;34369;51.174;6.738;2023-04-19T13:11:33;22.33;;;20.63;;
48588;SDS011;34369;51.174;6.738;2023-04-19T13:14:05;21.77;;;19.98;;
48588;SDS011;34369;51.174;6.738;2023-04-19T13:16:37;20.90;;;19.40;;
48588;SDS011;34369;51.174;6.738;2023-04-19T13:19:09;21.65;;;20.02;;
48588;SDS011;34369;51.174;6.738;2023-04-19T13:21:43;22.20;;;20.40;;
48588;SDS011;34369;51.174;6.738;2023-04-19T13:24:15;22.23;;;20.52;;
48588;SDS011;34369;51.174;6.738;2023-04-19T13:26:47;22.40;;;20.70;;
48588;SDS011;34369;51.174;6.738;2023-04-19T13:29:19;22.67;;;20.88;;
48588;SDS011;34369;51.174;6.738;2023-04-19T13:31:51;23.63;;;21.50;;
48588;SDS011;34369;51.174;6.738;2023-04-19T13:34:23;28.52;;;22.45;;
48588;SDS011;34369;51.174;6.738;2023-04-19T13:36:56;23.25;;;21.55;;
48588;SDS011;34369;51.174;6.738;2023-04-19T13:39:28;24.38;;;22.35;;
48588;SDS011;34369;51.174;6.738;2023-04-19T13:42:00;24.13;;;22.23;;
48588;SDS011;34369;51.174;6.738;2023-04-19T13:44:35;24.38;;;22.58;;
48588;SDS011;34369;51.174;6.738;2023-04-19T13:47:07;24.67;;;22.75;;
48588;SDS011;34369;51.174;6.738;2023-04-19T13:49:39;25.15;;;23.20;;
48588;SDS011;34369;51.174;6.738;2023-04-19T13:52:13;24.67;;;22.88;;
48588;SDS011;34369;51.174;6.738;2023-04-19T13:54:45;25.02;;;23.15;;
48588;SDS011;34369;51.174;6.738;2023-04-19T13:57:17;24.92;;;23.02;;
48588;SDS011;34369;51.174;6.738;2023-04-19T13:59:51;25.00;;;23.02;;
48588;SDS011;34369;51.174;6.738;2023-04-19T14:02:23;24.60;;;22.80;;
48588;SDS011;34369;51.174;6.738;2023-04-19T14:04:55;25.65;;;23.75;;
48588;SDS011;34369;51.174;6.738;2023-04-19T14:07:30;24.88;;;22.98;;
48588;SDS011;34369;51.174;6.738;2023-04-19T14:10:03;25.95;;;23.80;;
48588;SDS011;34369;51.174;6.738;2023-04-19T14:12:36;25.88;;;23.92;;
48588;SDS011;34369;51.174;6.738;2023-04-19T14:15:09;24.75;;;23.00;;
48588;SDS011;34369;51.174;6.738;2023-04-19T14:17:42;25.65;;;23.75;;
48588;SDS011;34369;51.174;6.738;2023-04-19T14:20:14;25.63;;;23.73;;
48588;SDS011;34369;51.174;6.738;2023-04-19T14:22:48;25.10;;;23.30;;
48588;SDS011;34369;51.174;6.738;2023-04-19T14:25:20;25.58;;;23.77;;
48588;SDS011;34369;51.174;6.738;2023-04-19T14:27:52;25.63;;;23.83;;
48588;SDS011;34369;51.174;6.738;2023-04-19T14:30:24;25.98;;;24.17;;
48588;SDS011;34369;51.174;6.738;2023-04-19T14:32:56;26.83;;;24.92;;
48588;SDS011;34369;51.174;6.738;2023-04-19T14:35:29;26.00;;;24.08;;
48588;SDS011;34369;51.174;6.738;2023-04-19T14:38:02;25.75;;;23.95;;
48588;SDS011;34369;51.174;6.738;2023-04-19T14:40:34;26.08;;;24.17;;
48588;SDS011;34369;51.174;6.738;2023-04-19T14:43:06;26.33;;;24.25;;
48588;SDS011;34369;51.174;6.738;2023-04-19T14:45:39;25.55;;;23.75;;
48588;SDS011;34369;51.174;6.738;2023-04-19T14:48:11;25.92;;;24.10;;
48588;SDS011;34369;51.174;6.738;2023-04-19T14:50:43;25.65;;;23.75;;
48588;SDS011;34369;51.174;6.738;2023-04-19T14:53:17;25.55;;;23.65;;
48588;SDS011;34369;51.174;6.738;2023-04-19T14:55:49;25.50;;;23.70;;
48588;SDS011;34369;51.174;6.738;2023-04-19T14:58:21;25.95;;;24.02;;
48588;SDS011;34369;51.174;6.738;2023-04-19T15:00:53;25.85;;;23.90;;
48588;SDS011;34369;51.174;6.738;2023-04-19T15:03:30;25.60;;;23.70;;